< < Back
Terminal Aerodrome Forecast


Current Version              Previous Versions:   1  2  3  4  5  6  7  8  9  

Terminal Aerodrome Forecast

249
FTUS42 KGSP 301301 AAA
TAFHKY
TAF AMD
KHKY 301301Z 3013/3112 29003KT P6SM FEW050 SCT250
      TEMPO 3013/3014 4SM BR OVC002
     FM301500 24004KT P6SM SCT060
     FM301900 23005KT P6SM VCTS SCT060CB PROB30 3022/3024 4SM -TSRA
      OVC040CB
     FM310400 VRB03KT P6SM SCT080
     FM310900 00000KT 5SM BR SCT120=

Latest METAR

173
SAUS70 KWBC 310500 RRC
MTRHKY
METAR KHKY 310453Z AUTO 00000KT 10SM CLR 22/21 A3004 RMK AO2 SLP148
T02220206 403220217


USA.gov is the U.S. government's official web portal to all federal, state and local government web resources and services.